Time;durP1;ratioP1;P1;durP2;ratioP2;P2;SDS_P1;SDS_P2;PMS_P1;PMS_P2;Temp;Humidity;BMP_temperature;BMP_pressure;BME280_temperature;BME280_humidity;BME280_pressure;Samples;Min_cycle;Max_cycle;Signal;HPM_P1;HPM_P2
2023/11/30 00:00:04;;;;;;;;;;;21.40;33.90;;;;;;4974693;28;19926;-55
2023/11/30 00:02:32;;;;;;;;;;;21.40;33.90;;;;;;4974103;28;20048;-53
2023/11/30 00:04:59;;;;;;;;;;;21.40;34.00;;;;;;4973954;28;20310;-53
2023/11/30 00:07:26;;;;;;;;;;;21.40;33.90;;;;;;4975002;28;20343;-55
2023/11/30 00:09:53;;;;;;;;;;;21.40;34.00;;;;;;4974574;28;19980;-55
2023/11/30 00:12:19;;;;;;;;;;;21.40;34.00;;;;;;4989927;28;19933;-51
2023/11/30 00:14:46;;;;;;;;;;;21.40;33.90;;;;;;4974888;28;19932;-49
2023/11/30 00:17:14;;;;;;;;;;;21.40;34.00;;;;;;4974676;28;19926;-53
2023/11/30 00:19:41;;;;;;;;;;;21.40;34.00;;;;;;4974786;28;19926;-51
2023/11/30 00:22:07;;;;;;;;;;;21.40;34.00;;;;;;4984468;28;19926;-52
2023/11/30 00:24:34;;;;;;;;;;;21.40;34.00;;;;;;4974737;28;19949;-50
2023/11/30 00:27:01;;;;;;;;;;;21.40;34.00;;;;;;4974766;28;20368;-55
2023/11/30 00:29:28;;;;;;;;;;;21.40;34.60;;;;;;4974097;28;19926;-53
2023/11/30 00:31:55;;;;;;;;;;;21.40;34.00;;;;;;4974586;28;19969;-50
2023/11/30 00:34:22;;;;;;;;;;;21.40;34.00;;;;;;4974493;28;19930;-55
2023/11/30 00:36:49;;;;;;;;;;;21.40;34.00;;;;;;4984181;28;19926;-52
2023/11/30 00:39:16;;;;;;;;;;;21.40;34.10;;;;;;4974269;28;19926;-54
2023/11/30 00:41:43;;;;;;;;;;;21.30;34.00;;;;;;4973937;28;20426;-51
2023/11/30 00:44:10;;;;;;;;;;;21.40;34.00;;;;;;4974699;28;20085;-54
2023/11/30 00:46:37;;;;;;;;;;;21.40;34.00;;;;;;4974388;28;19929;-55
2023/11/30 00:49:04;;;;;;;;;;;21.40;34.20;;;;;;4974419;28;20050;-53
2023/11/30 00:51:31;;;;;;;;;;;21.40;34.00;;;;;;4973814;28;20020;-53
2023/11/30 00:53:58;;;;;;;;;;;21.40;34.00;;;;;;4980043;28;19965;-54
2023/11/30 00:56:25;;;;;;;;;;;21.40;34.00;;;;;;4972882;28;20311;-50
2023/11/30 00:58:52;;;;;;;;;;;21.40;34.00;;;;;;4973995;28;20372;-50
2023/11/30 01:01:19;;;;;;;;;;;21.30;34.00;;;;;;4973708;28;19977;-51
2023/11/30 01:03:47;;;;;;;;;;;21.40;34.00;;;;;;4974210;28;19926;-53
2023/11/30 01:06:14;;;;;;;;;;;21.40;34.00;;;;;;4973881;28;20296;-53
2023/11/30 01:08:41;;;;;;;;;;;21.40;34.00;;;;;;4973987;28;20399;-52
2023/11/30 01:11:08;;;;;;;;;;;21.40;33.90;;;;;;4973509;28;20415;-55
2023/11/30 01:13:35;;;;;;;;;;;21.40;33.90;;;;;;4974050;28;19990;-53
2023/11/30 01:16:02;;;;;;;;;;;21.40;34.50;;;;;;4973857;28;19926;-51
2023/11/30 01:18:29;;;;;;;;;;;21.40;33.90;;;;;;4974213;28;19933;-48
2023/11/30 01:20:57;;;;;;;;;;;21.40;33.90;;;;;;4973855;28;20014;-52
2023/11/30 01:23:23;;;;;;;;;;;21.40;33.90;;;;;;4974054;28;19933;-54
2023/11/30 01:25:50;;;;;;;;;;;21.40;33.90;;;;;;4974666;28;20013;-50
2023/11/30 01:28:17;;;;;;;;;;;21.40;33.90;;;;;;4984522;28;19957;-51
2023/11/30 01:30:44;;;;;;;;;;;21.40;33.90;;;;;;4981930;28;20429;-54
2023/11/30 01:33:11;;;;;;;;;;;21.30;33.80;;;;;;4993341;28;19956;-51
2023/11/30 01:35:38;;;;;;;;;;;21.40;33.90;;;;;;4993304;28;19930;-56
2023/11/30 01:38:06;;;;;;;;;;;21.30;33.90;;;;;;4993742;28;20383;-57
2023/11/30 01:40:32;;;;;;;;;;;21.40;33.90;;;;;;4990204;28;19957;-56
2023/11/30 01:42:59;;;;;;;;;;;21.30;33.90;;;;;;4973954;28;19973;-55
2023/11/30 01:45:26;;;;;;;;;;;21.30;33.90;;;;;;4972816;28;19926;-54
2023/11/30 01:47:53;;;;;;;;;;;21.40;34.00;;;;;;4975181;28;19993;-52
2023/11/30 01:50:22;;;;;;;;;;;21.30;33.90;;;;;;4977101;28;20017;-56
2023/11/30 01:52:49;;;;;;;;;;;21.30;33.90;;;;;;4978437;28;19973;-55
2023/11/30 01:55:16;;;;;;;;;;;21.40;34.00;;;;;;4996630;28;19930;-54
2023/11/30 01:57:43;;;;;;;;;;;21.30;33.90;;;;;;4996487;28;19929;-52
2023/11/30 02:00:10;;;;;;;;;;;21.40;33.90;;;;;;4996088;28;19926;-52
2023/11/30 02:02:38;;;;;;;;;;;21.40;33.90;;;;;;4977240;28;20435;-53
2023/11/30 02:05:05;;;;;;;;;;;21.30;33.90;;;;;;4976545;28;19926;-53
2023/11/30 02:07:32;;;;;;;;;;;21.30;33.90;;;;;;4977083;28;19976;-56
2023/11/30 02:09:59;;;;;;;;;;;21.30;33.90;;;;;;4976831;28;20016;-51
2023/11/30 02:12:26;;;;;;;;;;;21.30;33.90;;;;;;4976304;28;20005;-49
2023/11/30 02:14:57;;;;;;;;;;;21.40;34.00;;;;;;4976431;28;19926;-49
2023/11/30 02:17:24;;;;;;;;;;;21.30;33.90;;;;;;4975732;28;19930;-54
2023/11/30 02:19:51;;;;;;;;;;;21.30;33.90;;;;;;4976722;28;19926;-54
2023/11/30 02:22:18;;;;;;;;;;;21.30;33.90;;;;;;4976433;28;19926;-49
2023/11/30 02:24:45;;;;;;;;;;;21.30;33.90;;;;;;4976891;28;20328;-53
2023/11/30 02:27:12;;;;;;;;;;;21.30;33.90;;;;;;4976890;28;19926;-50
2023/11/30 02:29:38;;;;;;;;;;;21.30;33.90;;;;;;4976439;28;19926;-49
2023/11/30 02:32:05;;;;;;;;;;;21.30;33.80;;;;;;4995697;28;19930;-54
2023/11/30 02:34:33;;;;;;;;;;;21.30;33.90;;;;;;4987081;28;19926;-52
2023/11/30 02:37:00;;;;;;;;;;;21.30;33.90;;;;;;4976189;28;19926;-53
2023/11/30 02:39:26;;;;;;;;;;;21.30;33.90;;;;;;4976570;28;19969;-51
2023/11/30 02:41:53;;;;;;;;;;;21.30;33.90;;;;;;4975960;28;20312;-54
2023/11/30 02:44:20;;;;;;;;;;;21.30;33.80;;;;;;4976346;28;19949;-53
2023/11/30 02:46:47;;;;;;;;;;;21.40;33.90;;;;;;4976410;28;19926;-50
2023/11/30 02:49:16;;;;;;;;;;;21.40;33.90;;;;;;4976483;28;19930;-53
2023/11/30 02:51:43;;;;;;;;;;;21.40;33.90;;;;;;4975359;28;20020;-55
2023/11/30 02:54:10;;;;;;;;;;;21.40;33.80;;;;;;4976345;28;20013;-53
2023/11/30 02:56:37;;;;;;;;;;;21.40;33.80;;;;;;4976044;28;19926;-53
2023/11/30 02:59:04;;;;;;;;;;;21.40;33.80;;;;;;4974879;28;20387;-53
2023/11/30 03:01:31;;;;;;;;;;;21.40;33.80;;;;;;4974670;28;19969;-51
2023/11/30 03:03:58;;;;;;;;;;;21.40;33.80;;;;;;4974933;28;20366;-51
2023/11/30 03:06:25;;;;;;;;;;;21.40;33.80;;;;;;4975488;28;20495;-53
2023/11/30 03:08:52;;;;;;;;;;;21.40;33.80;;;;;;4974981;28;20380;-53
2023/11/30 03:11:19;;;;;;;;;;;21.40;33.80;;;;;;4974650;28;20332;-52
2023/11/30 03:13:46;;;;;;;;;;;21.40;33.80;;;;;;4975277;28;20375;-53
2023/11/30 03:16:24;;;;;;;;;;;21.40;33.80;;;;;;4975645;28;20332;-52
2023/11/30 03:18:51;;;;;;;;;;;21.30;33.70;;;;;;4975401;28;19933;-55
2023/11/30 03:21:36;;;;;;;;;;;21.40;33.80;;;;;;4975523;28;19926;-55
2023/11/30 03:24:04;;;;;;;;;;;21.30;33.70;;;;;;4974617;28;20364;-56
2023/11/30 03:26:31;;;;;;;;;;;21.40;33.80;;;;;;4983715;28;19932;-57
2023/11/30 03:28:58;;;;;;;;;;;21.40;33.80;;;;;;4974475;28;19973;-54
2023/11/30 03:31:25;;;;;;;;;;;21.40;33.80;;;;;;4958952;28;19934;-55
2023/11/30 03:33:52;;;;;;;;;;;21.40;33.80;;;;;;4955783;29;19927;-55
2023/11/30 03:36:19;;;;;;;;;;;21.30;33.70;;;;;;4955831;28;19962;-51
2023/11/30 03:38:46;;;;;;;;;;;21.30;33.70;;;;;;4955981;29;19926;-54
2023/11/30 03:41:13;;;;;;;;;;;21.30;33.70;;;;;;4968693;28;19926;-54
2023/11/30 03:43:40;;;;;;;;;;;21.40;33.70;;;;;;4978437;28;20375;-50
2023/11/30 03:46:07;;;;;;;;;;;21.30;33.60;;;;;;4994391;28;20014;-52
2023/11/30 03:48:34;;;;;;;;;;;21.40;33.70;;;;;;4994203;28;19933;-54
2023/11/30 03:51:01;;;;;;;;;;;21.30;33.70;;;;;;4994089;28;19926;-54
2023/11/30 03:53:28;;;;;;;;;;;21.40;33.70;;;;;;4983828;28;19926;-57
2023/11/30 03:55:55;;;;;;;;;;;21.40;33.70;;;;;;4974570;28;19930;-56
2023/11/30 03:58:22;;;;;;;;;;;21.40;33.70;;;;;;4974180;28;20372;-54
2023/11/30 04:00:50;;;;;;;;;;;21.40;33.70;;;;;;4974632;28;19927;-53
2023/11/30 04:03:17;;;;;;;;;;;21.40;33.70;;;;;;4974787;28;19949;-52
2023/11/30 04:05:44;;;;;;;;;;;21.30;33.70;;;;;;4974280;28;19926;-55
2023/11/30 04:08:11;;;;;;;;;;;21.30;33.60;;;;;;4968404;28;19977;-54
2023/11/30 04:10:38;;;;;;;;;;;21.30;33.60;;;;;;4974194;28;20324;-55
2023/11/30 04:13:05;;;;;;;;;;;21.40;33.70;;;;;;4973665;28;19929;-53
2023/11/30 04:15:32;;;;;;;;;;;21.30;33.60;;;;;;4973413;28;19926;-56
2023/11/30 04:18:00;;;;;;;;;;;21.30;33.70;;;;;;4974488;28;19930;-55
2023/11/30 04:20:27;;;;;;;;;;;21.30;33.70;;;;;;4980030;28;20103;-55
2023/11/30 04:22:54;;;;;;;;;;;21.40;33.70;;;;;;4994253;28;19988;-53
2023/11/30 04:25:22;;;;;;;;;;;21.30;33.70;;;;;;4989171;28;19966;-56
2023/11/30 04:27:49;;;;;;;;;;;21.40;33.70;;;;;;4964645;28;19930;-56
2023/11/30 04:30:16;;;;;;;;;;;21.40;33.70;;;;;;4965240;28;19973;-53
2023/11/30 04:32:43;;;;;;;;;;;21.40;33.60;;;;;;4974427;28;19984;-52
2023/11/30 04:35:10;;;;;;;;;;;21.40;33.60;;;;;;4973460;28;20005;-53
2023/11/30 04:37:37;;;;;;;;;;;21.40;33.60;;;;;;4974412;28;20025;-56
2023/11/30 04:40:04;;;;;;;;;;;21.40;33.30;;;;;;4974159;28;19929;-54
2023/11/30 04:42:31;;;;;;;;;;;21.40;33.00;;;;;;4974302;28;19958;-55
2023/11/30 04:44:58;;;;;;;;;;;21.40;33.00;;;;;;4974132;28;19977;-53
2023/11/30 04:47:25;;;;;;;;;;;21.40;32.90;;;;;;4973411;28;20366;-52
2023/11/30 04:49:52;;;;;;;;;;;21.40;32.80;;;;;;4974434;28;19949;-55
2023/11/30 04:52:19;;;;;;;;;;;21.40;32.80;;;;;;4973891;28;19953;-56
2023/11/30 04:54:46;;;;;;;;;;;21.50;32.80;;;;;;4989500;28;20431;-55
2023/11/30 04:57:14;;;;;;;;;;;21.50;32.70;;;;;;4973270;28;19930;-57
2023/11/30 04:59:41;;;;;;;;;;;21.50;32.70;;;;;;4972793;28;20395;-54
2023/11/30 05:02:08;;;;;;;;;;;21.50;32.60;;;;;;4973402;28;19937;-55
2023/11/30 05:04:37;;;;;;;;;;;21.60;32.60;;;;;;4972374;28;19930;-57
2023/11/30 05:07:04;;;;;;;;;;;21.60;32.50;;;;;;4974051;28;19926;-56
2023/11/30 05:09:31;;;;;;;;;;;21.60;32.50;;;;;;4973855;28;20291;-56
2023/11/30 05:11:58;;;;;;;;;;;21.70;32.40;;;;;;4973343;28;19930;-55
2023/11/30 05:14:25;;;;;;;;;;;21.70;32.30;;;;;;4973481;28;19933;-57
2023/11/30 05:16:52;;;;;;;;;;;21.70;32.30;;;;;;4972759;28;19927;-54
2023/11/30 05:19:19;;;;;;;;;;;21.80;32.30;;;;;;4973285;28;20406;-63
2023/11/30 05:21:46;;;;;;;;;;;21.80;32.20;;;;;;4991086;28;19933;-58
2023/11/30 05:24:13;;;;;;;;;;;21.80;32.10;;;;;;4997419;28;19930;-56
2023/11/30 05:26:40;;;;;;;;;;;21.90;32.10;;;;;;4997323;28;19925;-61
2023/11/30 05:29:07;;;;;;;;;;;21.90;32.00;;;;;;4997153;28;19926;-59
2023/11/30 05:31:34;;;;;;;;;;;22.00;31.90;;;;;;4996698;28;19981;-58
2023/11/30 05:34:02;;;;;;;;;;;22.00;31.80;;;;;;4968992;28;19929;-65
2023/11/30 05:36:29;;;;;;;;;;;22.10;31.80;;;;;;4966683;28;20379;-64
2023/11/30 05:38:56;;;;;;;;;;;22.10;31.60;;;;;;4977280;28;19934;-57
2023/11/30 05:41:23;;;;;;;;;;;22.20;31.60;;;;;;4976024;28;19933;-64
2023/11/30 05:43:50;;;;;;;;;;;22.20;31.50;;;;;;4976621;28;20384;-57
2023/11/30 05:46:18;;;;;;;;;;;22.20;31.40;;;;;;4978386;28;20387;-64
2023/11/30 05:48:45;;;;;;;;;;;22.30;31.40;;;;;;4976757;28;19926;-59
2023/11/30 05:51:13;;;;;;;;;;;22.30;31.30;;;;;;4977013;28;20388;-59
2023/11/30 05:53:40;;;;;;;;;;;22.40;31.20;;;;;;4976546;28;20009;-58
2023/11/30 05:56:07;;;;;;;;;;;22.40;31.10;;;;;;4987951;28;19926;-59
2023/11/30 05:58:35;;;;;;;;;;;22.50;31.10;;;;;;4995990;28;19925;-58
2023/11/30 06:01:02;;;;;;;;;;;22.50;30.90;;;;;;4977027;28;19968;-58
2023/11/30 06:03:29;;;;;;;;;;;22.50;30.90;;;;;;4988951;28;20384;-58
2023/11/30 06:05:57;;;;;;;;;;;22.60;30.90;;;;;;4975817;28;20016;-61
2023/11/30 06:08:24;;;;;;;;;;;22.60;30.90;;;;;;4975404;28;20002;-56
2023/11/30 06:10:51;;;;;;;;;;;22.70;30.90;;;;;;4962456;28;19933;-56
2023/11/30 06:13:18;;;;;;;;;;;22.70;30.80;;;;;;4976222;28;19926;-56
2023/11/30 06:15:45;;;;;;;;;;;22.70;30.70;;;;;;4975756;28;20312;-60
2023/11/30 06:18:13;;;;;;;;;;;22.80;30.60;;;;;;4978640;28;20000;-63
2023/11/30 06:20:39;;;;;;;;;;;22.80;30.90;;;;;;4984319;28;19934;-59
2023/11/30 06:23:07;;;;;;;;;;;22.90;30.70;;;;;;4968522;28;20392;-55
2023/11/30 06:25:34;;;;;;;;;;;23.00;30.70;;;;;;4968291;28;19976;-55
2023/11/30 06:28:01;;;;;;;;;;;23.00;30.80;;;;;;4970613;28;19934;-53
2023/11/30 06:30:28;;;;;;;;;;;23.10;30.90;;;;;;4975422;28;19944;-51
2023/11/30 06:32:55;;;;;;;;;;;23.10;30.80;;;;;;4968359;28;19934;-52
2023/11/30 06:35:22;;;;;;;;;;;23.10;30.80;;;;;;4970274;28;19926;-53
2023/11/30 06:37:50;;;;;;;;;;;23.20;31.10;;;;;;4967614;28;19930;-58
2023/11/30 06:40:17;;;;;;;;;;;23.20;31.10;;;;;;4965269;28;20851;-59
2023/11/30 06:42:44;;;;;;;;;;;23.20;30.90;;;;;;4969946;28;19949;-56
2023/11/30 06:45:12;;;;;;;;;;;23.30;31.30;;;;;;4961852;28;21459;-56
2023/11/30 06:47:39;;;;;;;;;;;23.30;30.40;;;;;;4967219;28;20028;-57
2023/11/30 06:50:07;;;;;;;;;;;23.30;30.50;;;;;;4967355;28;20029;-56
2023/11/30 06:52:34;;;;;;;;;;;23.40;30.60;;;;;;4970938;28;19933;-58
2023/11/30 06:55:02;;;;;;;;;;;23.40;30.60;;;;;;4969499;28;19941;-57
2023/11/30 06:57:29;;;;;;;;;;;23.40;30.60;;;;;;4966638;28;19934;-57
2023/11/30 06:59:56;;;;;;;;;;;23.40;30.50;;;;;;4967390;28;20400;-56
2023/11/30 07:02:23;;;;;;;;;;;23.50;30.40;;;;;;4967792;28;19937;-53
2023/11/30 07:04:50;;;;;;;;;;;23.50;30.30;;;;;;4966259;28;19973;-57
2023/11/30 07:07:17;;;;;;;;;;;23.60;30.50;;;;;;4965232;28;19972;-56
2023/11/30 07:09:59;;;;;;;;;;;23.60;30.30;;;;;;4964021;28;20391;-55
2023/11/30 07:12:26;;;;;;;;;;;23.70;30.20;;;;;;4967784;28;20021;-54
2023/11/30 07:14:54;;;;;;;;;;;23.70;30.30;;;;;;4961301;28;19934;-54
2023/11/30 07:17:23;;;;;;;;;;;23.70;30.20;;;;;;4967011;28;20018;-52
2023/11/30 07:19:51;;;;;;;;;;;23.70;30.20;;;;;;4963292;28;20021;-53
2023/11/30 07:22:20;;;;;;;;;;;23.80;30.20;;;;;;4968721;28;20387;-53
2023/11/30 07:24:47;;;;;;;;;;;23.80;30.20;;;;;;4967190;28;19937;-54
2023/11/30 07:27:16;;;;;;;;;;;23.90;30.10;;;;;;4968623;28;20905;-54
2023/11/30 07:29:43;;;;;;;;;;;23.90;30.10;;;;;;4965580;28;19933;-56
2023/11/30 07:32:11;;;;;;;;;;;23.90;30.30;;;;;;4964158;28;20132;-56
2023/11/30 07:34:38;;;;;;;;;;;23.90;30.40;;;;;;4966100;28;20419;-58
2023/11/30 07:37:05;;;;;;;;;;;23.90;30.10;;;;;;4966050;28;20025;-55
2023/11/30 07:39:32;;;;;;;;;;;23.90;30.10;;;;;;4966761;28;19980;-59
2023/11/30 07:41:59;;;;;;;;;;;24.00;30.10;;;;;;4962551;28;19930;-59
2023/11/30 07:44:27;;;;;;;;;;;24.00;30.00;;;;;;4967473;28;19934;-58
2023/11/30 07:46:55;;;;;;;;;;;24.00;30.00;;;;;;4967861;28;20156;-52
2023/11/30 07:49:22;;;;;;;;;;;24.00;30.40;;;;;;4948885;28;19945;-51
2023/11/30 07:51:49;;;;;;;;;;;24.00;30.20;;;;;;4964679;28;20387;-52
2023/11/30 07:54:16;;;;;;;;;;;24.10;30.50;;;;;;4962836;28;19953;-55
2023/11/30 07:56:43;;;;;;;;;;;24.10;30.60;;;;;;4964305;28;19926;-49
2023/11/30 07:59:12;;;;;;;;;;;24.10;30.50;;;;;;4969732;28;20418;-54
2023/11/30 08:01:40;;;;;;;;;;;24.20;30.50;;;;;;4960878;28;19933;-52
2023/11/30 08:04:07;;;;;;;;;;;24.20;30.60;;;;;;4964302;28;19933;-53
2023/11/30 08:06:34;;;;;;;;;;;24.20;30.70;;;;;;4962350;28;19927;-56
2023/11/30 08:09:03;;;;;;;;;;;24.30;30.60;;;;;;4957144;28;19953;-54
2023/11/30 08:11:30;;;;;;;;;;;24.30;30.60;;;;;;4959856;28;19930;-49
2023/11/30 08:13:57;;;;;;;;;;;24.30;30.40;;;;;;4966071;28;20269;-49
2023/11/30 08:16:24;;;;;;;;;;;24.30;30.30;;;;;;4965659;28;19933;-51
2023/11/30 08:18:52;;;;;;;;;;;24.40;30.30;;;;;;4968078;28;19926;-54
2023/11/30 08:21:21;;;;;;;;;;;24.40;30.40;;;;;;4956824;28;20411;-54
2023/11/30 08:23:48;;;;;;;;;;;24.40;30.20;;;;;;4962394;28;19930;-51
2023/11/30 08:26:16;;;;;;;;;;;24.40;30.30;;;;;;4962261;28;20419;-56
2023/11/30 08:28:43;;;;;;;;;;;24.50;30.80;;;;;;4963346;28;19930;-54
2023/11/30 08:31:10;;;;;;;;;;;24.50;30.20;;;;;;4966915;28;19981;-55
2023/11/30 08:33:37;;;;;;;;;;;24.50;30.10;;;;;;4965197;28;20341;-54
2023/11/30 08:36:05;;;;;;;;;;;24.50;30.20;;;;;;4965321;28;19961;-55
2023/11/30 08:38:32;;;;;;;;;;;24.60;30.20;;;;;;4959704;28;19930;-52
2023/11/30 08:40:59;;;;;;;;;;;24.60;30.30;;;;;;4961355;28;19926;-55
2023/11/30 08:43:26;;;;;;;;;;;24.60;30.30;;;;;;4966447;28;19926;-52
2023/11/30 08:45:53;;;;;;;;;;;24.60;30.30;;;;;;4959621;28;19926;-50
2023/11/30 08:48:20;;;;;;;;;;;24.60;30.20;;;;;;4968710;28;19930;-48
2023/11/30 08:50:47;;;;;;;;;;;24.70;30.40;;;;;;4966208;28;19934;-54
2023/11/30 08:53:16;;;;;;;;;;;24.70;30.30;;;;;;4948633;28;19930;-53
2023/11/30 08:55:46;;;;;;;;;;;24.70;30.40;;;;;;4960017;28;20028;-54
2023/11/30 08:58:13;;;;;;;;;;;24.70;30.50;;;;;;4968561;28;19973;-54
2023/11/30 09:00:40;;;;;;;;;;;24.70;30.50;;;;;;4968367;28;19934;-54
2023/11/30 09:03:07;;;;;;;;;;;24.70;30.50;;;;;;4971247;28;19956;-53
2023/11/30 09:05:35;;;;;;;;;;;24.70;30.60;;;;;;4970426;28;19965;-53
2023/11/30 09:08:02;;;;;;;;;;;24.70;30.70;;;;;;4968905;28;19993;-50
2023/11/30 09:10:29;;;;;;;;;;;24.70;30.60;;;;;;4975078;28;20410;-55
2023/11/30 09:12:56;;;;;;;;;;;24.70;30.50;;;;;;4970832;28;19933;-57
2023/11/30 09:15:23;;;;;;;;;;;24.70;30.60;;;;;;4968311;28;19934;-54
2023/11/30 09:17:50;;;;;;;;;;;24.70;30.60;;;;;;4968364;28;20452;-54
2023/11/30 09:20:19;;;;;;;;;;;24.80;30.80;;;;;;4972590;28;20017;-53
2023/11/30 09:22:47;;;;;;;;;;;24.70;30.90;;;;;;4978190;28;20372;-52
2023/11/30 09:25:14;;;;;;;;;;;24.80;30.90;;;;;;4974068;28;19933;-53
2023/11/30 09:27:42;;;;;;;;;;;24.80;30.90;;;;;;4968968;28;19984;-55
2023/11/30 09:30:10;;;;;;;;;;;24.80;31.00;;;;;;4974349;28;20380;-52
2023/11/30 09:32:38;;;;;;;;;;;24.80;31.20;;;;;;4960895;28;19934;-52
2023/11/30 09:35:05;;;;;;;;;;;24.80;31.10;;;;;;4977840;28;19937;-55
2023/11/30 09:37:33;;;;;;;;;;;24.90;31.20;;;;;;4974859;28;19926;-54
2023/11/30 09:40:01;;;;;;;;;;;24.90;31.00;;;;;;4973267;28;19986;-53
2023/11/30 09:42:28;;;;;;;;;;;24.90;30.90;;;;;;4968163;28;19941;-55
2023/11/30 09:44:58;;;;;;;;;;;24.90;31.20;;;;;;4972373;28;19930;-54
2023/11/30 09:47:25;;;;;;;;;;;24.90;31.30;;;;;;4973292;28;19930;-53
2023/11/30 09:49:53;;;;;;;;;;;24.90;31.10;;;;;;4977508;28;21777;-54
2023/11/30 09:52:21;;;;;;;;;;;24.90;31.20;;;;;;4975622;28;19989;-51
2023/11/30 09:54:52;;;;;;;;;;;25.00;31.30;;;;;;4973072;28;19933;-54
2023/11/30 09:57:19;;;;;;;;;;;25.00;31.30;;;;;;4971756;28;19977;-57
2023/11/30 09:59:46;;;;;;;;;;;25.00;31.20;;;;;;4966071;28;19937;-56
2023/11/30 10:02:13;;;;;;;;;;;25.10;31.10;;;;;;4961944;28;20046;-58
2023/11/30 10:04:40;;;;;;;;;;;25.10;31.20;;;;;;4970120;28;19989;-53
2023/11/30 10:07:11;;;;;;;;;;;25.10;31.50;;;;;;4965666;28;20060;-56
2023/11/30 10:09:38;;;;;;;;;;;25.20;31.50;;;;;;4965846;28;19942;-55
2023/11/30 10:12:05;;;;;;;;;;;25.20;31.30;;;;;;4966627;28;20308;-55
2023/11/30 10:14:33;;;;;;;;;;;25.20;31.30;;;;;;4969561;28;19985;-53
2023/11/30 10:17:00;;;;;;;;;;;25.20;31.40;;;;;;4971935;28;20380;-54
2023/11/30 10:19:28;;;;;;;;;;;25.20;31.30;;;;;;4971441;28;19934;-55
2023/11/30 10:21:55;;;;;;;;;;;25.20;31.30;;;;;;4971144;28;20002;-54
2023/11/30 10:24:26;;;;;;;;;;;25.30;31.40;;;;;;4964953;28;20334;-58
2023/11/30 10:26:57;;;;;;;;;;;25.30;31.40;;;;;;4966047;28;20489;-57
2023/11/30 10:29:26;;;;;;;;;;;25.20;31.40;;;;;;4968998;28;19949;-53
2023/11/30 10:31:55;;;;;;;;;;;25.30;31.50;;;;;;4963854;28;20008;-54
2023/11/30 10:34:32;;;;;;;;;;;25.20;31.40;;;;;;4969077;28;19941;-55
2023/11/30 10:37:03;;;;;;;;;;;25.20;31.50;;;;;;4964489;28;20036;-57
2023/11/30 10:39:32;;;;;;;;;;;25.30;31.50;;;;;;4968848;28;19926;-57
2023/11/30 10:42:04;;;;;;;;;;;25.30;31.50;;;;;;4968341;28;20383;-51
2023/11/30 10:44:31;;;;;;;;;;;25.30;31.40;;;;;;4966885;28;20392;-55
2023/11/30 10:46:59;;;;;;;;;;;25.30;31.30;;;;;;4971178;28;19926;-56
2023/11/30 10:49:27;;;;;;;;;;;25.20;31.20;;;;;;4976996;28;19930;-56
2023/11/30 10:51:55;;;;;;;;;;;25.30;31.40;;;;;;4973199;28;20470;-57
2023/11/30 10:54:49;;;;;;;;;;;25.30;32.30;;;;;;4974289;28;20462;-59
2023/11/30 10:57:18;;;;;;;;;;;25.30;32.50;;;;;;4976957;28;19926;-58
2023/11/30 10:59:45;;;;;;;;;;;25.30;32.50;;;;;;4972825;28;19989;-55
2023/11/30 11:02:14;;;;;;;;;;;25.30;32.30;;;;;;4971546;28;20415;-54
2023/11/30 11:04:42;;;;;;;;;;;25.30;32.30;;;;;;4969579;28;19937;-54
2023/11/30 11:07:12;;;;;;;;;;;25.30;32.00;;;;;;4967494;28;19965;-53
2023/11/30 11:09:43;;;;;;;;;;;25.30;32.20;;;;;;4970033;28;19927;-50
2023/11/30 11:12:18;;;;;;;;;;;25.30;32.40;;;;;;4967280;28;20028;-50
2023/11/30 11:14:46;;;;;;;;;;;25.40;32.30;;;;;;4967975;28;19940;-54
2023/11/30 11:17:13;;;;;;;;;;;25.40;32.30;;;;;;4959007;28;19933;-49
2023/11/30 11:19:41;;;;;;;;;;;25.40;32.20;;;;;;4967431;28;20320;-52
2023/11/30 11:22:24;;;;;;;;;;;25.40;32.00;;;;;;4969107;28;19965;-49
2023/11/30 11:24:57;;;;;;;;;;;25.40;32.00;;;;;;4966799;28;20676;-50
2023/11/30 11:27:29;;;;;;;;;;;25.50;32.10;;;;;;4967668;28;19930;-50
2023/11/30 11:29:57;;;;;;;;;;;25.50;32.20;;;;;;4964312;28;19973;-53
2023/11/30 11:32:25;;;;;;;;;;;25.50;32.30;;;;;;4972662;28;20402;-50
2023/11/30 11:34:52;;;;;;;;;;;25.50;32.10;;;;;;4969041;28;19942;-51
2023/11/30 11:37:20;;;;;;;;;;;25.50;32.00;;;;;;4949265;28;19926;-53
2023/11/30 11:39:48;;;;;;;;;;;25.50;32.00;;;;;;4966691;28;19937;-49
2023/11/30 11:42:15;;;;;;;;;;;25.50;31.80;;;;;;4967278;28;19933;-54
2023/11/30 11:44:42;;;;;;;;;;;25.50;32.00;;;;;;4965054;28;19986;-53
2023/11/30 11:47:10;;;;;;;;;;;25.60;32.20;;;;;;4951402;28;20013;-51
2023/11/30 11:49:37;;;;;;;;;;;25.60;32.10;;;;;;4968474;28;20123;-50
2023/11/30 11:52:04;;;;;;;;;;;25.60;31.90;;;;;;4965605;28;19926;-52
2023/11/30 11:54:32;;;;;;;;;;;25.50;31.70;;;;;;4966997;28;19934;-51
2023/11/30 11:56:59;;;;;;;;;;;25.50;31.70;;;;;;4963644;28;19926;-53
2023/11/30 11:59:27;;;;;;;;;;;25.50;31.60;;;;;;4966143;28;19934;-55
2023/11/30 12:01:54;;;;;;;;;;;25.50;31.60;;;;;;4964975;28;19926;-54
2023/11/30 12:04:30;;;;;;;;;;;25.50;31.60;;;;;;4963186;28;19941;-55
2023/11/30 12:06:57;;;;;;;;;;;25.50;32.00;;;;;;4964184;28;19926;-52
2023/11/30 12:09:24;;;;;;;;;;;25.50;31.50;;;;;;4965636;28;19933;-55
2023/11/30 12:11:52;;;;;;;;;;;25.50;31.50;;;;;;4960039;28;20029;-52
2023/11/30 12:14:20;;;;;;;;;;;25.50;31.20;;;;;;4963917;28;19996;-55
2023/11/30 12:16:47;;;;;;;;;;;25.50;31.30;;;;;;4963296;28;20013;-54
2023/11/30 12:19:17;;;;;;;;;;;25.50;31.20;;;;;;4957038;28;20517;-51
2023/11/30 12:21:46;;;;;;;;;;;25.50;31.30;;;;;;4957748;28;20443;-59
2023/11/30 12:24:14;;;;;;;;;;;25.50;31.40;;;;;;4963572;28;19933;-57
2023/11/30 12:26:41;;;;;;;;;;;25.40;31.40;;;;;;4964021;28;19934;-58
2023/11/30 12:29:10;;;;;;;;;;;25.40;31.50;;;;;;4970317;28;19930;-58
2023/11/30 12:31:37;;;;;;;;;;;25.40;31.60;;;;;;4964658;28;19969;-50
2023/11/30 12:34:04;;;;;;;;;;;25.40;31.70;;;;;;4960651;28;20004;-56
2023/11/30 12:36:31;;;;;;;;;;;25.40;31.80;;;;;;4964277;28;19925;-55
2023/11/30 12:38:59;;;;;;;;;;;25.50;32.20;;;;;;4965100;28;19936;-55
2023/11/30 12:41:26;;;;;;;;;;;25.50;31.70;;;;;;4954008;28;19934;-54
2023/11/30 12:43:53;;;;;;;;;;;25.50;31.80;;;;;;4968828;28;19954;-54
2023/11/30 12:46:20;;;;;;;;;;;25.50;31.60;;;;;;4972627;28;20375;-53
2023/11/30 12:48:47;;;;;;;;;;;25.60;31.60;;;;;;4961402;28;20017;-53
2023/11/30 12:51:15;;;;;;;;;;;25.60;31.50;;;;;;4966204;28;19941;-53
2023/11/30 12:53:42;;;;;;;;;;;25.60;31.50;;;;;;4960920;28;20020;-54
2023/11/30 12:56:09;;;;;;;;;;;25.60;31.50;;;;;;4962833;28;19930;-55
2023/11/30 12:58:36;;;;;;;;;;;25.60;31.50;;;;;;4963056;28;20284;-55
2023/11/30 13:01:05;;;;;;;;;;;25.60;31.40;;;;;;4960729;28;20238;-56
2023/11/30 13:03:32;;;;;;;;;;;25.70;31.50;;;;;;4959423;28;20004;-54
2023/11/30 13:05:59;;;;;;;;;;;25.70;31.80;;;;;;4943969;28;19930;-56
2023/11/30 13:08:26;;;;;;;;;;;25.70;31.50;;;;;;4958042;28;19933;-54
2023/11/30 13:10:53;;;;;;;;;;;25.70;31.60;;;;;;4959805;28;20443;-56
2023/11/30 13:13:20;;;;;;;;;;;25.70;31.70;;;;;;4959928;28;19981;-54
2023/11/30 13:16:00;;;;;;;;;;;25.60;31.90;;;;;;4962010;28;19938;-54
2023/11/30 13:18:29;;;;;;;;;;;25.50;31.90;;;;;;4944497;28;20308;-51
2023/11/30 13:20:57;;;;;;;;;;;25.40;31.90;;;;;;4964995;28;19934;-54
2023/11/30 13:23:24;;;;;;;;;;;25.40;31.90;;;;;;4963940;28;19977;-54
2023/11/30 13:25:51;;;;;;;;;;;25.40;32.00;;;;;;4963221;28;19946;-53
2023/11/30 13:28:19;;;;;;;;;;;25.30;32.00;;;;;;4964278;28;19934;-55
2023/11/30 13:30:46;;;;;;;;;;;25.40;32.10;;;;;;4960511;28;21204;-51
2023/11/30 13:33:13;;;;;;;;;;;25.30;31.90;;;;;;4960270;28;19934;-53
2023/11/30 13:35:40;;;;;;;;;;;25.30;31.90;;;;;;4960853;28;19934;-50
2023/11/30 13:38:10;;;;;;;;;;;25.30;32.00;;;;;;4964304;28;19993;-53
2023/11/30 13:40:37;;;;;;;;;;;25.30;32.10;;;;;;4960461;28;20032;-51
2023/11/30 13:43:05;;;;;;;;;;;25.30;32.30;;;;;;4966614;28;19926;-54
2023/11/30 13:45:32;;;;;;;;;;;25.30;32.30;;;;;;4970197;28;19937;-47
2023/11/30 13:47:59;;;;;;;;;;;25.30;32.30;;;;;;4968216;28;19930;-54
2023/11/30 13:50:27;;;;;;;;;;;25.30;32.50;;;;;;4971338;28;19926;-53
2023/11/30 13:53:03;;;;;;;;;;;25.30;32.40;;;;;;4968008;28;19930;-54
2023/11/30 13:55:30;;;;;;;;;;;25.30;32.30;;;;;;4966087;28;19935;-52
2023/11/30 13:57:57;;;;;;;;;;;25.30;32.50;;;;;;4962150;28;20025;-54
2023/11/30 14:00:24;;;;;;;;;;;25.30;32.40;;;;;;4964363;28;19941;-54
2023/11/30 14:02:51;;;;;;;;;;;25.30;32.30;;;;;;4965119;28;19941;-53
2023/11/30 14:05:19;;;;;;;;;;;25.30;32.50;;;;;;4961054;28;19981;-52
2023/11/30 14:07:46;;;;;;;;;;;25.30;32.40;;;;;;4962058;28;19933;-55
2023/11/30 14:10:14;;;;;;;;;;;25.30;32.30;;;;;;4944780;28;19942;-52
2023/11/30 14:12:42;;;;;;;;;;;25.30;32.30;;;;;;4964901;28;21569;-54
2023/11/30 14:15:11;;;;;;;;;;;25.20;32.20;;;;;;4963631;28;19934;-53
2023/11/30 14:17:38;;;;;;;;;;;25.20;32.10;;;;;;4966183;28;19965;-54